createdAt,value
2024-02-12T00:01:07.926Z,98161.19
2024-02-12T00:03:37.080Z,98165.47
2024-02-12T00:06:06.089Z,98162.91
2024-02-12T00:08:34.099Z,98164.66
2024-02-12T00:11:02.041Z,98159.53
2024-02-12T00:13:30.017Z,98156.97
2024-02-12T00:15:59.780Z,98158.69
2024-02-12T00:18:27.614Z,98155.31
2024-02-12T00:20:55.451Z,98154.47
2024-02-12T00:23:23.331Z,98156.19
2024-02-12T00:25:51.234Z,98157.03
2024-02-12T00:28:19.039Z,98157.88
2024-02-12T00:30:46.858Z,98153.63
2024-02-12T00:33:16.090Z,98146.78
2024-02-12T00:35:44.174Z,98150.25
2024-02-12T00:38:12.838Z,98148.59
2024-02-12T00:40:41.793Z,98141.81
2024-02-12T00:43:10.069Z,98141.00
2024-02-12T00:45:39.836Z,98141.81
2024-02-12T00:48:08.184Z,98143.56
2024-02-12T00:50:38.049Z,98139.25
2024-02-12T00:53:06.055Z,98134.22
2024-02-12T00:55:33.994Z,98135.88
2024-02-12T00:58:04.518Z,98130.00
2024-02-12T01:00:33.023Z,98127.50
2024-02-12T01:03:00.967Z,98124.94
2024-02-12T01:05:30.548Z,98125.78
2024-02-12T01:07:59.878Z,98130.06
2024-02-12T01:10:28.115Z,98118.16
2024-02-12T01:12:56.186Z,98124.94
2024-02-12T01:15:24.499Z,98123.28
2024-02-12T01:17:54.159Z,98127.50
2024-02-12T01:20:29.329Z,98130.91
2024-02-12T01:22:57.565Z,98123.25
2024-02-12T01:25:26.749Z,98125.78
2024-02-12T01:27:54.728Z,98132.47
2024-02-12T01:30:23.424Z,98134.22
2024-02-12T01:32:51.585Z,98130.84
2024-02-12T01:35:19.983Z,98135.94
2024-02-12T01:37:47.789Z,98131.66
2024-02-12T01:40:15.710Z,98130.84
2024-02-12T01:42:45.308Z,98124.13
2024-02-12T01:45:18.406Z,98108.91
2024-02-12T01:47:47.825Z,98109.81
2024-02-12T01:50:16.938Z,98097.16
2024-02-12T01:52:50.172Z,98082.78
2024-02-12T01:55:20.017Z,98059.97
2024-02-12T01:57:51.438Z,98065.94
2024-02-12T02:00:23.535Z,98054.94
2024-02-12T02:03:02.604Z,98062.59
2024-02-12T02:05:30.467Z,98049.06
2024-02-12T02:08:01.753Z,98048.25
2024-02-12T02:10:31.026Z,98046.50
2024-02-12T02:13:01.898Z,98047.34
2024-02-12T02:15:29.863Z,98053.28
2024-02-12T02:17:57.841Z,98056.66
2024-02-12T02:20:27.892Z,98048.97
2024-02-12T02:22:56.684Z,98054.94
2024-02-12T02:25:25.905Z,98056.56
2024-02-12T02:27:53.771Z,98065.84
2024-02-12T02:30:22.242Z,98069.25
2024-02-12T02:32:50.576Z,98076.00
2024-02-12T02:35:19.063Z,98079.41
2024-02-12T02:37:46.930Z,98080.22
2024-02-12T02:40:14.798Z,98084.44
2024-02-12T02:42:47.905Z,98088.72
2024-02-12T02:45:16.389Z,98090.38
2024-02-12T02:47:44.723Z,98092.81
2024-02-12T02:50:13.081Z,98096.28
2024-02-12T02:52:41.216Z,98096.28
2024-02-12T02:55:10.245Z,98098.75
2024-02-12T02:57:39.493Z,98103.88
2024-02-12T03:00:11.119Z,98097.09
2024-02-12T03:02:39.155Z,98091.97
2024-02-12T03:05:08.178Z,98090.25
2024-02-12T03:07:37.559Z,98098.00
2024-02-12T03:10:08.271Z,98080.16
2024-02-12T03:12:36.263Z,98065.78
2024-02-12T03:15:04.358Z,98053.19
2024-02-12T03:17:34.028Z,98043.94
2024-02-12T03:20:02.081Z,98044.00
2024-02-12T03:22:29.962Z,98027.03
2024-02-12T03:25:01.723Z,98027.13
2024-02-12T03:27:29.621Z,98013.59
2024-02-12T03:29:57.399Z,98011.09
2024-02-12T03:32:25.271Z,98008.56
2024-02-12T03:34:55.083Z,98006.91
2024-02-12T03:37:23.019Z,98002.66
2024-02-12T03:39:53.695Z,97998.44
2024-02-12T03:42:23.280Z,97989.22
2024-02-12T03:44:51.510Z,97979.88
2024-02-12T03:47:19.673Z,97980.78
2024-02-12T03:50:05.131Z,97968.09
2024-02-12T03:52:51.641Z,97957.06
2024-02-12T03:55:37.171Z,97950.38
2024-02-12T03:58:22.828Z,97945.41
2024-02-12T04:00:51.972Z,97941.19
2024-02-12T04:03:20.768Z,97926.84
2024-02-12T04:05:48.760Z,97914.22
2024-02-12T04:08:18.169Z,97906.69
2024-02-12T04:10:46.059Z,97902.47
2024-02-12T04:13:15.961Z,97908.31
2024-02-12T04:15:45.308Z,97914.28
2024-02-12T04:18:13.462Z,97911.66
2024-02-12T04:20:41.468Z,97906.53
2024-02-12T04:23:12.695Z,97904.00
2024-02-12T04:25:41.914Z,97908.25
2024-02-12T04:28:10.995Z,97902.31
2024-02-12T04:30:38.866Z,97898.09
2024-02-12T04:33:07.006Z,97905.78
2024-02-12T04:35:36.688Z,97908.31
2024-02-12T04:38:07.713Z,97908.25
2024-02-12T04:40:35.573Z,97911.66
2024-02-12T04:43:05.206Z,97915.88
2024-02-12T04:45:33.075Z,97915.88
2024-02-12T04:48:01.034Z,97914.13
2024-02-12T04:50:30.025Z,97917.50
2024-02-12T04:52:57.835Z,97914.13
2024-02-12T04:55:26.066Z,97915.88
2024-02-12T04:57:53.936Z,97903.13
2024-02-12T05:00:23.447Z,97911.72
2024-02-12T05:02:51.259Z,97899.00
2024-02-12T05:05:19.265Z,97894.81
2024-02-12T05:07:49.070Z,97894.88
2024-02-12T05:10:17.048Z,97883.75
2024-02-12T05:12:45.693Z,97891.41
2024-02-12T05:15:13.570Z,97893.88
2024-02-12T05:17:56.396Z,97901.47
2024-02-12T05:20:42.174Z,97903.22
2024-02-12T05:23:11.178Z,97898.09
2024-02-12T05:25:39.336Z,97905.78
2024-02-12T05:28:08.757Z,97888.78
2024-02-12T05:30:36.606Z,97887.13
2024-02-12T05:33:07.645Z,97875.34
2024-02-12T05:35:35.634Z,97871.19
2024-02-12T05:38:03.498Z,97856.00
2024-02-12T05:40:31.286Z,97857.66
2024-02-12T05:42:59.089Z,97855.09
2024-02-12T05:45:27.366Z,97867.88
2024-02-12T05:47:55.284Z,97862.69
2024-02-12T05:50:24.531Z,97866.88
2024-02-12T05:52:53.068Z,97865.16
2024-02-12T05:55:20.969Z,97874.50
2024-02-12T05:57:48.782Z,97875.34
2024-02-12T06:00:18.269Z,97869.44
2024-02-12T06:02:46.484Z,97871.13
2024-02-12T06:05:16.564Z,97869.41
2024-02-12T06:07:45.930Z,97881.28
2024-02-12T06:10:14.643Z,97884.66
2024-02-12T06:12:42.456Z,97881.28
2024-02-12T06:15:11.156Z,97883.75
2024-02-12T06:17:39.241Z,97883.81
2024-02-12T06:20:08.591Z,97872.81
2024-02-12T06:22:36.618Z,97873.59
2024-02-12T06:25:09.194Z,97880.38
2024-02-12T06:27:36.973Z,97877.81
2024-02-12T06:30:05.588Z,97880.28
2024-02-12T06:32:33.445Z,97886.22
2024-02-12T06:35:02.185Z,97887.88
2024-02-12T06:37:30.142Z,97888.78
2024-02-12T06:39:58.330Z,97891.34
2024-02-12T06:42:27.491Z,97894.63
2024-02-12T06:44:55.281Z,97898.88
2024-02-12T06:47:24.031Z,97914.06
2024-02-12T06:49:51.809Z,97917.34
2024-02-12T06:52:19.751Z,97921.50
2024-02-12T06:54:49.106Z,97943.53
2024-02-12T06:57:17.235Z,97938.34
2024-02-12T06:59:46.798Z,97942.53
2024-02-12T07:02:15.192Z,97949.31
2024-02-12T07:04:43.427Z,97948.50
2024-02-12T07:07:11.237Z,97947.63
2024-02-12T07:09:39.082Z,97951.81
2024-02-12T07:12:08.292Z,97958.59
2024-02-12T07:14:36.285Z,97962.72
2024-02-12T07:17:06.936Z,97968.66
2024-02-12T07:19:35.063Z,97974.53
2024-02-12T07:22:02.905Z,97987.25
2024-02-12T07:24:31.193Z,97991.38
2024-02-12T07:26:59.021Z,98004.00
2024-02-12T07:29:26.917Z,98006.53
2024-02-12T07:31:54.773Z,98009.84
2024-02-12T07:34:23.944Z,98020.00
2024-02-12T07:36:53.126Z,98033.56
2024-02-12T07:39:20.893Z,98046.22
2024-02-12T07:41:48.821Z,98052.06
2024-02-12T07:44:16.968Z,98062.22
2024-02-12T07:46:46.085Z,98065.63
2024-02-12T07:49:13.981Z,98059.63
2024-02-12T07:51:43.174Z,98067.28
2024-02-12T07:54:11.011Z,98061.28
2024-02-12T07:56:38.908Z,98068.94
2024-02-12T07:59:06.851Z,98068.88
2024-02-12T08:01:34.661Z,98075.63
2024-02-12T08:04:02.578Z,98087.44
2024-02-12T08:06:30.759Z,98100.94
2024-02-12T08:08:59.986Z,98108.47
2024-02-12T08:11:27.814Z,98123.75
2024-02-12T08:13:55.665Z,98123.59
2024-02-12T08:16:23.542Z,98138.06
2024-02-12T08:18:51.576Z,98147.31
2024-02-12T08:21:19.590Z,98159.06
2024-02-12T08:23:47.614Z,98177.63
2024-02-12T08:26:17.058Z,98196.97
2024-02-12T08:28:45.050Z,98216.50
2024-02-12T08:31:12.854Z,98229.13
2024-02-12T08:33:40.777Z,98243.47
2024-02-12T08:36:09.349Z,98254.38
2024-02-12T08:38:37.280Z,98260.25
2024-02-12T08:41:05.466Z,98275.50
2024-02-12T08:43:34.735Z,98288.97
2024-02-12T08:46:02.750Z,98304.22
2024-02-12T08:48:30.634Z,98314.31
2024-02-12T08:50:59.617Z,98334.59
2024-02-12T08:53:27.474Z,98351.47
2024-02-12T08:55:55.463Z,98371.00
2024-02-12T08:58:23.365Z,98374.31
2024-02-12T09:00:54.423Z,98383.59
2024-02-12T09:03:22.322Z,98365.88
2024-02-12T09:05:50.276Z,98367.47
2024-02-12T09:08:18.108Z,98372.59
2024-02-12T09:10:45.995Z,98382.75
2024-02-12T09:13:13.989Z,98394.53
2024-02-12T09:15:41.968Z,98401.25
2024-02-12T09:18:12.673Z,98422.44
2024-02-12T09:20:41.605Z,98444.34
2024-02-12T09:23:09.554Z,98472.19
2024-02-12T09:25:37.378Z,98500.97
2024-02-12T09:28:06.502Z,98529.66
2024-02-12T09:30:35.003Z,98522.13
2024-02-12T09:33:03.026Z,98528.81
2024-02-12T09:35:34.695Z,98535.56
2024-02-12T09:38:04.455Z,98546.56
2024-02-12T09:40:34.431Z,98564.34
2024-02-12T09:43:02.968Z,98562.69
2024-02-12T09:45:31.757Z,98581.31
2024-02-12T09:48:00.794Z,98597.31
2024-02-12T09:50:29.751Z,98594.75
2024-02-12T09:52:59.446Z,98602.38
2024-02-12T09:55:28.574Z,98607.44
2024-02-12T09:57:56.779Z,98628.59
2024-02-12T10:00:24.617Z,98652.28
2024-02-12T10:02:54.421Z,98659.03
2024-02-12T10:05:22.615Z,98668.38
2024-02-12T10:07:51.358Z,98681.06
2024-02-12T10:10:20.879Z,98681.03
2024-02-12T10:12:53.085Z,98682.69
2024-02-12T10:15:21.740Z,98698.00
2024-02-12T10:17:50.759Z,98701.41
2024-02-12T10:20:19.627Z,98694.53
2024-02-12T10:22:47.608Z,98693.63
2024-02-12T10:25:16.159Z,98708.94
2024-02-12T10:27:45.263Z,98714.84
2024-02-12T10:30:18.961Z,98725.06
2024-02-12T10:32:49.320Z,98738.56
2024-02-12T10:35:17.893Z,98744.47
2024-02-12T10:37:47.042Z,98745.31
2024-02-12T10:40:19.001Z,98757.25
2024-02-12T10:42:51.327Z,98749.47
2024-02-12T10:45:19.972Z,98769.81
2024-02-12T10:47:49.386Z,98793.66
2024-02-12T10:50:19.639Z,98785.88
2024-02-12T10:52:50.983Z,98780.91
2024-02-12T10:55:19.907Z,98788.47
2024-02-12T10:57:49.360Z,98813.94
2024-02-12T11:00:24.613Z,98814.69
2024-02-12T11:02:52.608Z,98809.63
2024-02-12T11:05:22.048Z,98820.66
2024-02-12T11:07:50.109Z,98840.09
2024-02-12T11:10:19.841Z,98847.81
2024-02-12T11:12:49.828Z,98839.28
2024-02-12T11:15:27.997Z,98858.75
2024-02-12T11:17:56.492Z,98857.03
2024-02-12T11:20:26.539Z,98862.94
2024-02-12T11:22:56.222Z,98856.19
2024-02-12T11:25:25.033Z,98862.13
2024-02-12T11:27:55.659Z,98872.25
2024-02-12T11:30:23.610Z,98890.94
2024-02-12T11:32:51.558Z,98909.53
2024-02-12T11:35:20.980Z,98935.91
2024-02-12T11:37:57.586Z,98949.38
2024-02-12T11:40:25.528Z,98958.72
2024-02-12T11:42:54.870Z,98967.16
2024-02-12T11:45:24.654Z,98963.78
2024-02-12T11:47:53.738Z,98944.25
2024-02-12T11:50:24.131Z,98912.91
2024-02-12T11:52:52.083Z,98904.38
2024-02-12T11:55:20.531Z,98910.34
2024-02-12T11:57:49.071Z,98907.78
2024-02-12T12:00:20.122Z,98927.31
2024-02-12T12:02:48.970Z,98940.00
2024-02-12T12:05:18.747Z,98967.09
2024-02-12T12:07:48.433Z,98966.19
2024-02-12T12:10:22.600Z,98981.50
2024-02-12T12:12:59.177Z,99000.16
2024-02-12T12:15:30.772Z,98991.59
2024-02-12T12:18:00.741Z,98990.81
2024-02-12T12:20:31.386Z,99013.69
2024-02-12T12:23:01.866Z,99052.75
2024-02-12T12:25:29.907Z,99071.38
2024-02-12T12:27:58.296Z,99112.94
2024-02-12T12:30:27.642Z,99121.38
2024-02-12T12:32:57.114Z,99102.66
2024-02-12T12:35:25.859Z,99074.72
2024-02-12T12:37:53.935Z,99072.13
2024-02-12T12:40:23.542Z,99083.25
2024-02-12T12:42:52.165Z,99055.22
2024-02-12T12:45:21.424Z,99034.91
2024-02-12T12:47:49.942Z,99020.41
2024-02-12T12:50:19.321Z,99005.16
2024-02-12T12:52:47.428Z,99043.38
2024-02-12T12:55:16.235Z,99106.97
2024-02-12T12:57:45.176Z,99172.22
2024-02-12T13:00:20.130Z,99210.38
2024-02-12T13:02:48.609Z,99202.75
2024-02-12T13:05:16.736Z,99234.16
2024-02-12T13:08:16.288Z,99274.88
2024-02-12T13:10:41.601Z,99329.28
2024-02-12T13:13:15.031Z,99332.56
2024-02-12T13:15:45.308Z,99358.97
2024-02-12T13:18:18.420Z,99381.84
2024-02-12T13:20:48.978Z,99410.75
2024-02-12T13:23:21.747Z,99375.94
2024-02-12T13:25:50.360Z,99362.38
2024-02-12T13:28:19.821Z,99338.56
2024-02-12T13:30:48.820Z,99318.09
2024-02-12T13:33:17.986Z,99296.88
2024-02-12T13:35:48.784Z,99277.38
2024-02-12T13:38:21.975Z,99281.53
2024-02-12T13:40:50.053Z,99283.28
2024-02-12T13:43:21.020Z,99290.13
2024-02-12T13:45:50.968Z,99261.19
2024-02-12T13:48:21.503Z,99234.03
2024-02-12T13:50:50.075Z,99195.84
2024-02-12T13:53:19.494Z,99181.44
2024-02-12T13:55:48.360Z,99171.22
2024-02-12T13:58:16.348Z,99176.44
2024-02-12T14:01:03.009Z,99160.22
2024-02-12T14:03:34.778Z,99132.22
2024-02-12T14:06:05.111Z,99077.16
2024-02-12T14:08:38.281Z,99051.66
2024-02-12T14:11:07.262Z,99044.00
2024-02-12T14:13:37.234Z,99053.31
2024-02-12T14:16:09.833Z,99035.50
2024-02-12T14:18:39.958Z,99035.50
2024-02-12T14:21:10.088Z,99044.06
2024-02-12T14:23:40.431Z,99049.06
2024-02-12T14:26:13.838Z,99044.84
2024-02-12T14:28:42.450Z,99036.34
2024-02-12T14:31:14.837Z,99038.91
2024-02-12T14:33:44.734Z,99032.09
2024-02-12T14:36:12.874Z,99015.16
2024-02-12T14:38:42.964Z,98999.94
2024-02-12T14:41:11.006Z,98990.56
2024-02-12T14:43:38.954Z,98889.75
2024-02-12T14:46:08.421Z,98742.41
2024-02-12T14:48:38.248Z,98633.28
2024-02-12T14:51:06.748Z,98505.53
2024-02-12T14:53:34.894Z,98436.28
2024-02-12T14:56:04.231Z,98362.81
2024-02-12T14:58:33.372Z,98328.28
2024-02-12T15:03:31.376Z,98273.31
2024-02-12T15:05:59.493Z,98241.28
2024-02-12T15:08:28.315Z,98224.38
2024-02-12T15:10:56.257Z,98195.72
2024-02-12T15:13:25.402Z,98167.84
2024-02-12T15:15:53.281Z,98156.06
2024-02-12T15:18:24.268Z,98145.16
2024-02-12T15:20:52.202Z,98130.75
2024-02-12T15:23:20.049Z,98122.31
2024-02-12T15:25:47.867Z,98115.56
2024-02-12T15:28:16.256Z,98115.63
2024-02-12T15:30:47.169Z,98109.69
2024-02-12T15:33:15.972Z,98119.03
2024-02-12T15:35:44.090Z,98105.47
2024-02-12T15:38:16.951Z,98107.19
2024-02-12T15:40:44.935Z,98113.06
2024-02-12T15:43:13.381Z,98099.56
2024-02-12T15:45:41.277Z,98097.03
2024-02-12T15:48:16.114Z,98103.78
2024-02-12T15:50:45.872Z,98102.91
2024-02-12T15:53:13.897Z,98113.16
2024-02-12T15:55:42.377Z,98108.84
2024-02-12T15:58:10.434Z,98113.97
2024-02-12T16:00:41.284Z,98119.03
2024-02-12T16:03:14.217Z,98116.47
2024-02-12T16:06:10.859Z,98109.69
2024-02-12T16:08:41.280Z,98097.94
2024-02-12T16:11:11.761Z,98090.31
2024-02-12T16:13:41.413Z,98076.78
2024-02-12T16:16:09.764Z,98084.47
2024-02-12T16:18:40.046Z,98082.72
2024-02-12T16:21:09.236Z,98083.56
2024-02-12T16:23:37.982Z,98087.84
2024-02-12T16:26:08.418Z,98089.50
2024-02-12T16:28:37.264Z,98093.72
2024-02-12T16:31:05.757Z,98090.31
2024-02-12T16:33:36.947Z,98087.84
2024-02-12T16:36:08.427Z,98087.75
2024-02-12T16:38:37.881Z,98078.53
2024-02-12T16:41:07.041Z,98076.00
2024-02-12T16:43:35.453Z,98065.84
2024-02-12T16:46:04.554Z,98053.22
2024-02-12T16:48:36.823Z,98042.19
2024-02-12T16:51:06.987Z,98042.28
2024-02-12T16:53:35.327Z,98034.78
2024-02-12T16:56:04.858Z,98027.19
2024-02-12T16:58:33.586Z,98017.00
2024-02-12T17:01:03.057Z,98006.09
2024-02-12T17:03:31.621Z,97999.31
2024-02-12T17:06:00.016Z,98007.75
2024-02-12T17:08:29.544Z,98016.16
2024-02-12T17:10:57.540Z,98029.72
2024-02-12T17:13:25.445Z,98033.94
2024-02-12T17:15:53.658Z,98028.00
2024-02-12T17:18:21.814Z,98033.88
2024-02-12T17:20:51.416Z,98032.13
2024-02-12T17:23:19.511Z,98031.38
2024-02-12T17:25:49.181Z,98028.00
2024-02-12T17:28:20.268Z,98025.50
2024-02-12T17:30:48.261Z,98013.69
2024-02-12T17:33:17.118Z,98009.47
2024-02-12T17:35:45.376Z,97997.72
2024-02-12T17:38:15.221Z,97979.97
2024-02-12T17:40:44.050Z,97954.56
2024-02-12T17:43:14.413Z,97951.34
2024-02-12T17:45:42.423Z,97932.84
2024-02-12T17:48:11.909Z,97912.63
2024-02-12T17:50:39.832Z,97889.91
2024-02-12T17:53:07.709Z,97871.41
2024-02-12T17:55:36.228Z,97851.97
2024-02-12T17:58:05.465Z,97846.13
2024-02-12T18:00:39.403Z,97841.09
2024-02-12T18:03:08.018Z,97834.41
2024-02-12T18:05:36.862Z,97813.34
2024-02-12T18:08:05.159Z,97802.41
2024-02-12T18:10:33.098Z,97798.25
2024-02-12T18:13:00.918Z,97798.19
2024-02-12T18:15:30.459Z,97798.25
2024-02-12T18:17:59.684Z,97797.34
2024-02-12T18:20:27.576Z,97796.50
2024-02-12T18:22:55.440Z,97785.47
2024-02-12T18:25:23.225Z,97783.06
2024-02-12T18:27:51.086Z,97778.03
2024-02-12T18:30:19.199Z,97783.16
2024-02-12T18:32:48.955Z,97781.41
2024-02-12T18:35:18.777Z,97779.78
2024-02-12T18:37:49.596Z,97779.78
2024-02-12T18:40:19.485Z,97783.06
2024-02-12T18:42:48.211Z,97781.41
2024-02-12T18:45:17.958Z,97780.59
2024-02-12T18:47:47.584Z,97777.22
2024-02-12T18:50:16.687Z,97780.59
2024-02-12T18:52:49.402Z,97778.94
2024-02-12T18:55:18.094Z,97770.44
2024-02-12T18:57:47.793Z,97773.00
2024-02-12T19:00:17.629Z,97777.22
2024-02-12T19:02:46.420Z,97778.88
2024-02-12T19:05:14.994Z,97770.44
2024-02-12T19:07:43.272Z,97762.09
2024-02-12T19:10:13.914Z,97766.31
2024-02-12T19:12:43.680Z,97756.16
2024-02-12T19:15:15.650Z,97747.81
2024-02-12T19:17:44.595Z,97741.03
2024-02-12T19:20:13.463Z,97733.56
2024-02-12T19:22:41.710Z,97707.38
2024-02-12T19:25:11.127Z,97699.91
2024-02-12T19:27:43.654Z,97676.22
2024-02-12T19:30:12.938Z,97650.97
2024-02-12T19:32:41.059Z,97644.38
2024-02-12T19:35:11.730Z,97633.44
2024-02-12T19:37:40.345Z,97627.56
2024-02-12T19:40:15.087Z,97625.91
2024-02-12T19:42:47.371Z,97620.88
2024-02-12T19:45:15.949Z,97630.19
2024-02-12T19:47:44.324Z,97619.97
2024-02-12T19:50:14.122Z,97612.38
2024-02-12T19:52:42.684Z,97619.22
2024-02-12T19:55:10.581Z,97609.91
2024-02-12T19:57:40.006Z,97603.22
2024-02-12T20:00:14.828Z,97592.34
2024-02-12T20:02:44.039Z,97591.63
2024-02-12T20:05:12.881Z,97564.56
2024-02-12T20:07:41.123Z,97559.69
2024-02-12T20:10:09.594Z,97524.19
2024-02-12T20:12:37.683Z,97509.94
2024-02-12T20:15:07.028Z,97489.81
2024-02-12T20:17:36.657Z,97472.13
2024-02-12T20:20:06.715Z,97467.19
2024-02-12T20:22:34.815Z,97458.75
2024-02-12T20:25:04.724Z,97452.00
2024-02-12T20:27:32.593Z,97452.91
2024-02-12T20:30:00.951Z,97446.16
2024-02-12T20:32:30.116Z,97441.16
2024-02-12T20:34:59.824Z,97434.47
2024-02-12T20:37:28.240Z,97432.81
2024-02-12T20:39:56.408Z,97416.03
2024-02-12T20:42:25.043Z,97426.06
2024-02-12T20:44:52.929Z,97437.00
2024-02-12T20:47:20.919Z,97437.00
2024-02-12T20:49:49.748Z,97445.34
2024-02-12T20:52:19.038Z,97490.72
2024-02-12T20:54:46.953Z,97548.75
2024-02-12T20:57:15.805Z,97581.53
2024-02-12T20:59:44.466Z,97597.53
2024-02-12T21:02:12.911Z,97604.31
2024-02-12T21:04:42.407Z,97599.19
2024-02-12T21:07:10.568Z,97593.34
2024-02-12T21:09:41.263Z,97576.44
2024-02-12T21:12:09.921Z,97558.81
2024-02-12T21:14:38.479Z,97557.13
2024-02-12T21:17:07.010Z,97552.19
2024-02-12T21:19:36.039Z,97541.25
2024-02-12T21:22:04.123Z,97536.22
2024-02-12T21:24:31.987Z,97528.63
2024-02-12T21:27:03.086Z,97511.81
2024-02-12T21:29:31.015Z,97510.19
2024-02-12T21:31:58.986Z,97506.88
2024-02-12T21:34:27.853Z,97490.81
2024-02-12T21:36:55.790Z,97483.38
2024-02-12T21:39:34.856Z,97454.75
2024-02-12T21:42:09.942Z,97426.97
2024-02-12T21:44:39.408Z,97412.81
2024-02-12T21:47:08.180Z,97392.69
2024-02-12T21:49:36.116Z,97393.59
2024-02-12T21:52:03.956Z,97389.31
2024-02-12T21:54:33.271Z,97387.69
2024-02-12T21:57:01.213Z,97380.13
2024-02-12T21:59:30.373Z,97378.47
2024-02-12T22:01:58.276Z,97379.28
2024-02-12T22:04:26.118Z,97375.84
2024-02-12T22:06:54.163Z,97386.94
2024-02-12T22:09:22.068Z,97386.88
2024-02-12T22:11:50.714Z,97375.91
2024-02-12T22:14:18.671Z,97374.19
2024-02-12T22:16:47.938Z,97365.84
2024-02-12T22:19:15.883Z,97344.06
2024-02-12T22:21:44.206Z,97313.88
2024-02-12T22:24:12.245Z,97287.75
2024-02-12T22:26:43.626Z,97275.25
2024-02-12T22:29:12.058Z,97254.19
2024-02-12T22:31:39.977Z,97249.25
2024-02-12T22:34:11.049Z,97235.03
2024-02-12T22:36:39.027Z,97218.16
2024-02-12T22:39:07.182Z,97210.69
2024-02-12T22:41:39.774Z,97187.22
2024-02-12T22:44:07.553Z,97159.50
2024-02-12T22:46:35.806Z,97143.56
2024-02-12T22:49:03.815Z,97123.50
2024-02-12T22:51:33.223Z,97105.91
2024-02-12T22:54:01.517Z,97081.59
2024-02-12T22:56:29.537Z,97064.09
2024-02-12T22:58:57.497Z,97025.47
2024-02-12T23:01:25.447Z,97005.50
2024-02-12T23:06:35.772Z,96968.53
2024-02-12T23:09:05.218Z,96947.59
2024-02-12T23:11:33.133Z,96937.59
2024-02-12T23:14:00.988Z,96924.28
2024-02-12T23:16:29.043Z,96915.97
2024-02-12T23:18:56.981Z,96897.50
2024-02-12T23:21:25.925Z,96879.13
2024-02-12T23:23:55.340Z,96866.56
2024-02-12T23:26:23.489Z,96849.81
2024-02-12T23:28:51.357Z,96841.53
2024-02-12T23:31:19.168Z,96830.59
2024-02-12T23:33:47.242Z,96823.97
2024-02-12T23:36:15.657Z,96821.41
2024-02-12T23:38:43.489Z,96816.31
2024-02-12T23:41:12.697Z,96814.69
2024-02-12T23:43:40.584Z,96814.69
2024-02-12T23:46:08.401Z,96816.41
2024-02-12T23:48:36.561Z,96813.06
2024-02-12T23:51:04.999Z,96816.41
2024-02-12T23:53:32.819Z,96834.81
2024-02-12T23:56:00.755Z,96859.06
2024-02-12T23:58:30.787Z,96863.28
